createdAt,value
2023-05-03T00:01:44.454Z,15.20
2023-05-03T00:04:11.864Z,15.20
2023-05-03T00:06:39.605Z,15.20
2023-05-03T00:09:07.002Z,15.10
2023-05-03T00:11:34.650Z,15.10
2023-05-03T00:14:01.936Z,15.10
2023-05-03T00:16:29.404Z,15.00
2023-05-03T00:18:56.673Z,15.00
2023-05-03T00:21:24.103Z,15.00
2023-05-03T00:23:51.490Z,15.00
2023-05-03T00:26:19.047Z,15.00
2023-05-03T00:28:46.967Z,15.00
2023-05-03T00:31:14.424Z,15.00
2023-05-03T00:33:41.824Z,15.00
2023-05-03T00:36:11.254Z,15.00
2023-05-03T00:38:39.373Z,15.00
2023-05-03T00:41:07.901Z,14.90
2023-05-03T00:43:35.903Z,14.80
2023-05-03T00:46:15.974Z,14.80
2023-05-03T00:48:48.276Z,14.90
2023-05-03T00:51:17.018Z,14.80
2023-05-03T00:53:44.397Z,14.80
2023-05-03T00:56:12.270Z,14.80
2023-05-03T00:58:40.817Z,14.80
2023-05-03T01:01:09.141Z,14.80
2023-05-03T01:03:41.847Z,14.70
2023-05-03T01:06:13.189Z,14.70
2023-05-03T01:08:48.146Z,14.70
2023-05-03T01:11:24.626Z,14.60
2023-05-03T01:13:56.453Z,14.60
2023-05-03T01:16:31.499Z,14.60
2023-05-03T01:19:03.747Z,14.60
2023-05-03T01:21:34.062Z,14.60
2023-05-03T01:24:07.562Z,14.60
2023-05-03T01:26:34.906Z,14.50
2023-05-03T01:29:02.368Z,14.50
2023-05-03T01:31:39.056Z,14.40
2023-05-03T01:34:13.499Z,14.40
2023-05-03T01:36:44.530Z,14.40
2023-05-03T01:39:18.438Z,14.40
2023-05-03T01:41:47.279Z,14.30
2023-05-03T01:44:16.349Z,14.30
2023-05-03T01:46:45.220Z,14.20
2023-05-03T01:49:13.239Z,14.20
2023-05-03T01:51:40.638Z,14.20
2023-05-03T01:54:08.015Z,14.10
2023-05-03T01:56:37.638Z,14.10
2023-05-03T01:59:05.382Z,14.10
2023-05-03T02:01:32.936Z,14.10
2023-05-03T02:04:01.452Z,14.00
2023-05-03T02:06:28.979Z,14.00
2023-05-03T02:09:00.114Z,13.90
2023-05-03T02:11:27.649Z,13.80
2023-05-03T02:13:54.939Z,13.80
2023-05-03T02:16:22.466Z,13.80
2023-05-03T02:18:52.108Z,13.80
2023-05-03T02:21:19.532Z,13.80
2023-05-03T02:23:47.117Z,13.80
2023-05-03T02:26:14.856Z,13.70
2023-05-03T02:28:42.139Z,13.70
2023-05-03T02:31:09.660Z,13.60
2023-05-03T02:33:37.977Z,13.60
2023-05-03T02:36:05.938Z,13.60
2023-05-03T02:38:33.348Z,13.60
2023-05-03T02:41:00.889Z,13.50
2023-05-03T02:43:28.182Z,13.50
2023-05-03T02:45:55.610Z,13.40
2023-05-03T02:48:23.416Z,13.40
2023-05-03T02:50:51.401Z,13.40
2023-05-03T02:53:18.739Z,13.30
2023-05-03T02:55:46.978Z,13.30
2023-05-03T02:58:14.266Z,13.30
2023-05-03T03:00:41.954Z,13.40
2023-05-03T03:03:09.776Z,13.30
2023-05-03T03:05:37.279Z,13.30
2023-05-03T03:08:04.833Z,13.20
2023-05-03T03:10:33.280Z,13.20
2023-05-03T03:13:00.879Z,13.20
2023-05-03T03:15:34.642Z,13.20
2023-05-03T03:18:02.106Z,13.20
2023-05-03T03:20:29.482Z,13.10
2023-05-03T03:22:57.778Z,13.10
2023-05-03T03:25:25.235Z,13.10
2023-05-03T03:27:56.061Z,13.10
2023-05-03T03:30:23.589Z,13.10
2023-05-03T03:33:00.610Z,13.00
2023-05-03T03:35:35.501Z,13.00
2023-05-03T03:38:04.121Z,13.00
2023-05-03T03:40:32.386Z,13.00
2023-05-03T03:43:00.929Z,13.00
2023-05-03T03:45:28.193Z,12.90
2023-05-03T03:47:58.421Z,13.00
2023-05-03T03:50:27.517Z,13.00
2023-05-03T03:52:54.849Z,13.00
2023-05-03T03:55:23.462Z,13.00
2023-05-03T03:57:54.107Z,13.00
2023-05-03T04:00:24.107Z,12.90
2023-05-03T04:02:58.970Z,12.90
2023-05-03T04:05:26.491Z,12.90
2023-05-03T04:07:55.123Z,12.80
2023-05-03T04:10:22.630Z,12.80
2023-05-03T04:12:49.937Z,12.80
2023-05-03T04:15:17.457Z,12.70
2023-05-03T04:17:46.884Z,12.70
2023-05-03T04:20:14.467Z,12.70
2023-05-03T04:22:47.158Z,12.70
2023-05-03T04:25:17.500Z,12.60
2023-05-03T04:27:52.600Z,12.60
2023-05-03T04:30:21.500Z,12.60
2023-05-03T04:32:54.591Z,12.60
2023-05-03T04:35:24.137Z,12.60
2023-05-03T04:37:52.467Z,12.60
2023-05-03T04:40:23.676Z,12.50
2023-05-03T04:43:00.746Z,12.50
2023-05-03T04:45:30.678Z,12.50
2023-05-03T04:47:58.517Z,12.40
2023-05-03T04:50:26.309Z,12.40
2023-05-03T04:52:54.641Z,12.40
2023-05-03T04:55:24.821Z,12.40
2023-05-03T04:57:54.478Z,12.40
2023-05-03T05:00:22.720Z,12.30
2023-05-03T05:02:58.095Z,12.30
2023-05-03T05:05:28.777Z,12.30
2023-05-03T05:07:58.340Z,12.30
2023-05-03T05:10:28.484Z,12.30
2023-05-03T05:12:58.242Z,12.30
2023-05-03T05:15:25.962Z,12.30
2023-05-03T05:17:53.751Z,12.30
2023-05-03T05:20:21.384Z,12.30
2023-05-03T05:22:50.623Z,12.30
2023-05-03T05:25:19.713Z,12.40
2023-05-03T05:27:47.783Z,12.40
2023-05-03T05:30:15.862Z,12.40
2023-05-03T05:32:44.335Z,12.50
2023-05-03T05:35:13.530Z,12.50
2023-05-03T05:37:41.371Z,12.60
2023-05-03T05:40:09.822Z,12.80
2023-05-03T05:42:42.815Z,12.90
2023-05-03T05:45:11.094Z,13.10
2023-05-03T05:47:40.165Z,13.20
2023-05-03T05:50:17.036Z,13.30
2023-05-03T05:52:53.522Z,13.40
2023-05-03T05:55:22.822Z,13.50
2023-05-03T05:57:51.599Z,13.70
2023-05-03T06:00:24.513Z,13.80
2023-05-03T06:02:52.373Z,13.80
2023-05-03T06:05:22.292Z,14.00
2023-05-03T06:07:50.515Z,14.10
2023-05-03T06:10:18.340Z,14.20
2023-05-03T06:12:49.226Z,14.30
2023-05-03T06:15:22.670Z,14.50
2023-05-03T06:17:50.298Z,14.70
2023-05-03T06:20:18.523Z,14.70
2023-05-03T06:22:47.647Z,14.80
2023-05-03T06:25:17.847Z,14.90
2023-05-03T06:27:50.122Z,14.90
2023-05-03T06:30:20.407Z,15.00
2023-05-03T06:32:49.297Z,15.20
2023-05-03T06:35:20.059Z,15.30
2023-05-03T06:37:48.317Z,15.40
2023-05-03T06:40:16.291Z,15.50
2023-05-03T06:42:43.786Z,15.60
2023-05-03T06:45:15.558Z,15.70
2023-05-03T06:47:43.288Z,15.70
2023-05-03T06:50:11.461Z,15.80
2023-05-03T06:52:38.996Z,16.00
2023-05-03T06:55:07.207Z,16.10
2023-05-03T06:57:34.737Z,16.30
2023-05-03T07:00:02.303Z,16.50
2023-05-03T07:02:30.308Z,16.60
2023-05-03T07:04:57.745Z,16.80
2023-05-03T07:07:25.132Z,16.90
2023-05-03T07:09:52.517Z,17.00
2023-05-03T07:12:19.998Z,17.10
2023-05-03T07:14:47.724Z,17.20
2023-05-03T07:17:15.105Z,17.40
2023-05-03T07:19:42.447Z,17.60
2023-05-03T07:22:10.564Z,17.90
2023-05-03T07:24:38.428Z,18.10
2023-05-03T07:27:05.951Z,18.40
2023-05-03T07:29:33.484Z,18.60
2023-05-03T07:32:01.182Z,18.90
2023-05-03T07:34:28.528Z,19.20
2023-05-03T07:36:56.622Z,19.20
2023-05-03T07:39:23.882Z,19.30
2023-05-03T07:41:51.533Z,19.50
2023-05-03T07:44:18.831Z,19.70
2023-05-03T07:46:46.217Z,20.00
2023-05-03T07:49:13.672Z,20.10
2023-05-03T07:51:42.083Z,20.30
2023-05-03T07:54:09.544Z,20.50
2023-05-03T07:56:36.979Z,20.60
2023-05-03T07:59:10.002Z,20.80
2023-05-03T08:01:38.689Z,21.00
2023-05-03T08:04:06.344Z,21.20
2023-05-03T08:06:36.057Z,21.40
2023-05-03T08:09:05.107Z,21.30
2023-05-03T08:11:32.598Z,21.50
2023-05-03T08:13:59.973Z,21.60
2023-05-03T08:16:27.753Z,21.60
2023-05-03T08:18:55.128Z,21.70
2023-05-03T08:21:25.048Z,22.00
2023-05-03T08:23:52.566Z,22.10
2023-05-03T08:26:22.255Z,22.30
2023-05-03T08:28:49.953Z,22.40
2023-05-03T08:31:18.030Z,22.60
2023-05-03T08:33:45.768Z,22.60
2023-05-03T08:36:13.116Z,22.80
2023-05-03T08:38:41.678Z,22.90
2023-05-03T08:41:22.613Z,23.10
2023-05-03T08:43:54.410Z,23.30
2023-05-03T08:46:22.314Z,23.40
2023-05-03T08:48:52.753Z,23.70
2023-05-03T08:51:22.059Z,23.80
2023-05-03T08:53:50.172Z,23.80
2023-05-03T08:56:26.221Z,23.80
2023-05-03T08:58:53.854Z,23.90
2023-05-03T09:01:21.243Z,24.00
2023-05-03T09:03:51.960Z,24.10
2023-05-03T09:06:22.736Z,24.30
2023-05-03T09:08:50.263Z,24.40
2023-05-03T09:11:23.621Z,24.60
2023-05-03T09:13:53.286Z,24.80
2023-05-03T09:16:23.222Z,24.80
2023-05-03T09:18:53.671Z,24.80
2023-05-03T09:21:21.131Z,25.00
2023-05-03T09:23:48.580Z,24.90
2023-05-03T09:26:29.261Z,25.00
2023-05-03T09:28:59.025Z,25.20
2023-05-03T09:31:26.554Z,25.30
2023-05-03T09:33:54.231Z,25.40
2023-05-03T09:36:21.891Z,25.40
2023-05-03T09:38:50.179Z,25.60
2023-05-03T09:41:26.596Z,25.50
2023-05-03T09:43:56.460Z,25.80
2023-05-03T09:46:25.721Z,25.80
2023-05-03T09:48:55.771Z,25.70
2023-05-03T09:51:24.654Z,25.90
2023-05-03T09:53:52.273Z,26.20
2023-05-03T09:56:22.789Z,26.40
2023-05-03T09:58:50.162Z,26.60
2023-05-03T10:01:17.971Z,26.80
2023-05-03T10:03:50.867Z,26.70
2023-05-03T10:06:21.845Z,26.60
2023-05-03T10:08:55.122Z,26.50
2023-05-03T10:11:26.961Z,26.50
2023-05-03T10:13:56.188Z,26.40
2023-05-03T10:16:29.564Z,26.40
2023-05-03T10:19:06.543Z,26.60
2023-05-03T10:21:45.064Z,26.80
2023-05-03T10:24:16.158Z,26.90
2023-05-03T10:26:47.612Z,26.80
2023-05-03T10:29:18.364Z,26.80
2023-05-03T10:31:48.070Z,26.80
2023-05-03T10:34:39.747Z,26.80
2023-05-03T10:37:10.575Z,26.80
2023-05-03T10:39:44.374Z,26.90
2023-05-03T10:42:11.738Z,26.90
2023-05-03T10:44:41.359Z,27.00
2023-05-03T10:47:18.947Z,27.10
2023-05-03T10:49:46.840Z,27.10
2023-05-03T10:52:35.577Z,27.20
2023-05-03T10:55:10.426Z,27.20
2023-05-03T10:57:40.526Z,27.40
2023-05-03T11:00:16.688Z,27.50
2023-05-03T11:03:01.157Z,27.50
2023-05-03T11:05:30.515Z,27.60
2023-05-03T11:08:01.706Z,27.70
2023-05-03T11:10:29.104Z,27.70
2023-05-03T11:12:56.400Z,27.80
2023-05-03T11:15:23.835Z,27.80
2023-05-03T11:17:51.276Z,27.70
2023-05-03T11:20:19.545Z,27.80
2023-05-03T11:22:47.134Z,27.80
2023-05-03T11:25:15.825Z,27.90
2023-05-03T11:27:43.248Z,28.00
2023-05-03T11:30:11.360Z,28.00
2023-05-03T11:32:39.190Z,28.10
2023-05-03T11:35:07.693Z,28.10
2023-05-03T11:37:35.718Z,28.00
2023-05-03T11:40:05.096Z,27.90
2023-05-03T11:42:32.322Z,27.80
2023-05-03T11:45:02.058Z,27.80
2023-05-03T11:47:29.834Z,27.80
2023-05-03T11:49:58.368Z,27.90
2023-05-03T11:52:27.975Z,28.00
2023-05-03T11:54:56.415Z,28.00
2023-05-03T11:57:26.054Z,27.90
2023-05-03T11:59:53.580Z,27.90
2023-05-03T12:02:22.942Z,28.10
2023-05-03T12:04:50.908Z,28.10
2023-05-03T12:07:21.523Z,28.10
2023-05-03T12:10:03.511Z,28.20
2023-05-03T12:12:41.120Z,28.30
2023-05-03T12:15:11.677Z,28.40
2023-05-03T12:17:44.229Z,28.30
2023-05-03T12:22:51.116Z,28.30
2023-05-03T12:25:20.809Z,28.30
2023-05-03T12:28:02.000Z,28.30
2023-05-03T12:30:40.064Z,28.30
2023-05-03T12:33:10.035Z,28.40
2023-05-03T12:35:40.632Z,28.40
2023-05-03T12:38:09.890Z,28.30
2023-05-03T12:40:39.727Z,28.30
2023-05-03T12:43:07.744Z,28.30
2023-05-03T12:45:35.314Z,28.30
2023-05-03T12:48:03.648Z,28.30
2023-05-03T12:50:32.288Z,28.40
2023-05-03T12:53:02.721Z,28.50
2023-05-03T12:55:35.734Z,28.50
2023-05-03T12:58:36.826Z,28.50
2023-05-03T13:03:32.606Z,28.50
2023-05-03T13:06:11.116Z,28.50
2023-05-03T13:08:48.875Z,28.50
2023-05-03T13:11:20.037Z,28.50
2023-05-03T13:13:47.803Z,28.50
2023-05-03T13:16:15.274Z,28.50
2023-05-03T13:18:43.230Z,28.50
2023-05-03T13:21:11.882Z,28.40
2023-05-03T13:23:39.128Z,28.40
2023-05-03T13:26:07.289Z,28.40
2023-05-03T13:28:34.781Z,28.30
2023-05-03T13:31:02.112Z,28.30
2023-05-03T13:33:29.471Z,28.40
2023-05-03T13:35:57.665Z,28.50
2023-05-03T13:38:24.904Z,28.40
2023-05-03T13:40:52.884Z,28.30
2023-05-03T13:43:20.245Z,28.20
2023-05-03T13:45:47.628Z,28.20
2023-05-03T13:48:18.378Z,28.20
2023-05-03T13:50:46.740Z,28.20
2023-05-03T13:53:14.037Z,28.20
2023-05-03T13:55:41.574Z,28.20
2023-05-03T13:58:08.990Z,28.20
2023-05-03T14:00:36.447Z,28.10
2023-05-03T14:03:04.109Z,28.00
2023-05-03T14:05:31.863Z,28.00
2023-05-03T14:07:59.843Z,28.00
2023-05-03T14:10:27.318Z,28.00
2023-05-03T14:12:54.880Z,28.00
2023-05-03T14:15:22.265Z,28.00
2023-05-03T14:17:49.716Z,27.90
2023-05-03T14:20:17.972Z,28.00
2023-05-03T14:22:46.429Z,27.90
2023-05-03T14:25:13.787Z,27.80
2023-05-03T14:27:41.247Z,27.70
2023-05-03T14:30:10.016Z,27.60
2023-05-03T14:32:37.364Z,27.50
2023-05-03T14:35:05.119Z,27.70
2023-05-03T14:37:33.644Z,27.90
2023-05-03T14:40:01.796Z,28.00
2023-05-03T14:42:30.928Z,28.10
2023-05-03T14:44:59.278Z,28.20
2023-05-03T14:47:26.569Z,28.10
2023-05-03T14:49:53.990Z,28.00
2023-05-03T14:52:21.326Z,28.00
2023-05-03T14:54:48.670Z,27.90
2023-05-03T14:57:44.579Z,27.80
2023-05-03T15:00:15.435Z,27.80
2023-05-03T15:02:42.923Z,27.80
2023-05-03T15:05:11.113Z,27.80
2023-05-03T15:07:38.779Z,27.80
2023-05-03T15:10:08.128Z,27.90
2023-05-03T15:12:36.347Z,27.80
2023-05-03T15:15:04.335Z,27.90
2023-05-03T15:17:31.872Z,27.90
2023-05-03T15:19:59.211Z,27.80
2023-05-03T15:22:26.872Z,27.80
2023-05-03T15:24:54.142Z,27.80
2023-05-03T15:27:21.561Z,27.80
2023-05-03T15:29:48.831Z,27.80
2023-05-03T15:32:16.406Z,27.70
2023-05-03T15:34:43.749Z,27.80
2023-05-03T15:37:13.364Z,27.70
2023-05-03T15:39:40.634Z,27.60
2023-05-03T15:42:08.048Z,27.70
2023-05-03T15:44:35.350Z,27.70
2023-05-03T15:47:02.918Z,27.60
2023-05-03T15:49:30.331Z,27.60
2023-05-03T15:51:58.163Z,27.60
2023-05-03T15:54:25.547Z,27.70
2023-05-03T15:56:53.438Z,27.70
2023-05-03T15:59:20.945Z,27.70
2023-05-03T16:01:48.779Z,27.70
2023-05-03T16:04:16.211Z,27.60
2023-05-03T16:06:43.691Z,27.60
2023-05-03T16:09:12.599Z,27.60
2023-05-03T16:11:40.127Z,27.50
2023-05-03T16:14:09.594Z,27.50
2023-05-03T16:16:39.263Z,27.40
2023-05-03T16:19:07.667Z,27.40
2023-05-03T16:21:35.146Z,27.40
2023-05-03T16:24:02.477Z,27.50
2023-05-03T16:26:31.877Z,27.50
2023-05-03T16:28:59.142Z,27.50
2023-05-03T16:31:28.640Z,27.50
2023-05-03T16:33:56.104Z,27.40
2023-05-03T16:36:24.259Z,27.40
2023-05-03T16:38:51.551Z,27.30
2023-05-03T16:41:18.992Z,27.30
2023-05-03T16:43:46.249Z,27.20
2023-05-03T16:46:13.691Z,27.20
2023-05-03T16:48:41.869Z,27.10
2023-05-03T16:51:09.161Z,27.00
2023-05-03T16:53:36.793Z,27.00
2023-05-03T16:56:04.400Z,27.00
2023-05-03T16:58:31.639Z,26.90
2023-05-03T17:00:59.076Z,26.80
2023-05-03T17:03:26.745Z,26.80
2023-05-03T17:05:54.249Z,26.70
2023-05-03T17:08:21.754Z,26.60
2023-05-03T17:10:50.438Z,26.60
2023-05-03T17:13:17.750Z,26.60
2023-05-03T17:15:45.356Z,26.80
2023-05-03T17:18:12.763Z,26.80
2023-05-03T17:20:40.205Z,26.90
2023-05-03T17:23:07.523Z,26.80
2023-05-03T17:25:35.618Z,26.80
2023-05-03T17:28:03.611Z,26.70
2023-05-03T17:30:31.307Z,26.70
2023-05-03T17:32:58.862Z,26.60
2023-05-03T17:35:26.533Z,26.50
2023-05-03T17:37:53.775Z,26.40
2023-05-03T17:40:21.233Z,26.30
2023-05-03T17:42:48.585Z,26.30
2023-05-03T17:45:16.482Z,26.20
2023-05-03T17:47:43.922Z,26.20
2023-05-03T17:50:12.908Z,26.00
2023-05-03T17:52:40.797Z,25.90
2023-05-03T17:55:08.769Z,25.90
2023-05-03T17:57:37.697Z,25.80
2023-05-03T18:00:06.401Z,25.70
2023-05-03T18:02:34.498Z,25.70
2023-05-03T18:05:02.316Z,25.60
2023-05-03T18:07:29.567Z,25.60
2023-05-03T18:09:57.036Z,25.50
2023-05-03T18:12:24.305Z,25.40
2023-05-03T18:14:52.866Z,25.30
2023-05-03T18:17:20.415Z,25.30
2023-05-03T18:19:47.787Z,25.20
2023-05-03T18:22:15.084Z,25.20
2023-05-03T18:24:42.567Z,25.00
2023-05-03T18:27:10.072Z,25.00
2023-05-03T18:29:37.463Z,24.90
2023-05-03T18:32:05.773Z,24.80
2023-05-03T18:34:37.613Z,24.80
2023-05-03T18:37:05.423Z,24.70
2023-05-03T18:39:34.666Z,24.60
2023-05-03T18:42:02.010Z,24.50
2023-05-03T18:44:29.369Z,24.50
2023-05-03T18:46:57.127Z,24.40
2023-05-03T18:49:24.454Z,24.40
2023-05-03T18:51:51.830Z,24.30
2023-05-03T18:54:20.727Z,24.20
2023-05-03T18:56:48.232Z,24.20
2023-05-03T18:59:15.509Z,24.10
2023-05-03T19:01:42.969Z,24.10
2023-05-03T19:04:10.333Z,24.00
2023-05-03T19:06:37.738Z,23.90
2023-05-03T19:09:05.028Z,23.80
2023-05-03T19:11:32.472Z,23.70
2023-05-03T19:14:00.550Z,23.70
2023-05-03T19:16:28.081Z,23.60
2023-05-03T19:18:56.111Z,23.60
2023-05-03T19:21:23.548Z,23.60
2023-05-03T19:23:51.825Z,23.50
2023-05-03T19:26:19.230Z,23.50
2023-05-03T19:28:47.327Z,23.50
2023-05-03T19:31:14.977Z,23.40
2023-05-03T19:33:42.335Z,23.30
2023-05-03T19:36:12.582Z,23.30
2023-05-03T19:38:39.922Z,23.20
2023-05-03T19:41:08.305Z,23.20
2023-05-03T19:43:35.761Z,23.10
2023-05-03T19:46:03.250Z,23.10
2023-05-03T19:48:30.659Z,23.00
2023-05-03T19:50:58.986Z,23.00
2023-05-03T19:53:28.491Z,22.90
2023-05-03T19:55:58.268Z,22.80
2023-05-03T19:58:26.292Z,22.80
2023-05-03T20:00:54.902Z,22.70
2023-05-03T20:03:23.651Z,22.60
2023-05-03T20:05:51.174Z,22.50
2023-05-03T20:08:18.502Z,22.40
2023-05-03T20:10:46.615Z,22.30
2023-05-03T20:13:14.195Z,22.30
2023-05-03T20:15:41.804Z,22.20
2023-05-03T20:18:09.212Z,22.00
2023-05-03T20:20:36.859Z,21.90
2023-05-03T20:23:04.173Z,21.70
2023-05-03T20:25:32.610Z,21.60
2023-05-03T20:27:59.863Z,21.50
2023-05-03T20:30:29.290Z,21.40
2023-05-03T20:32:56.657Z,21.30
2023-05-03T20:35:24.201Z,21.20
2023-05-03T20:37:51.564Z,21.10
2023-05-03T20:40:18.997Z,21.10
2023-05-03T20:42:46.363Z,21.10
2023-05-03T20:45:13.867Z,21.10
2023-05-03T20:47:41.164Z,21.20
2023-05-03T20:50:09.154Z,21.20
2023-05-03T20:52:36.501Z,21.20
2023-05-03T20:55:03.980Z,21.20
2023-05-03T20:57:31.752Z,21.10
2023-05-03T21:00:00.490Z,20.90
2023-05-03T21:02:27.835Z,20.80
2023-05-03T21:04:55.337Z,20.80
2023-05-03T21:07:22.939Z,20.80
2023-05-03T21:09:50.309Z,20.90
2023-05-03T21:12:17.647Z,20.90
2023-05-03T21:14:45.107Z,20.80
2023-05-03T21:17:12.435Z,20.80
2023-05-03T21:19:40.011Z,20.70
2023-05-03T21:22:08.995Z,20.70
2023-05-03T21:24:36.540Z,20.60
2023-05-03T21:27:04.554Z,20.70
2023-05-03T21:29:31.973Z,20.70
2023-05-03T21:31:59.263Z,20.70
2023-05-03T21:34:26.678Z,20.70
2023-05-03T21:36:54.306Z,20.80
2023-05-03T21:39:21.848Z,20.80
2023-05-03T21:41:49.094Z,20.80
2023-05-03T21:44:16.738Z,20.80
2023-05-03T21:46:44.075Z,20.80
2023-05-03T21:49:12.108Z,20.80
2023-05-03T21:51:39.491Z,20.90
2023-05-03T21:54:06.811Z,20.90
2023-05-03T21:56:34.102Z,20.90
2023-05-03T21:59:01.702Z,21.00
2023-05-03T22:01:30.035Z,21.00
2023-05-03T22:03:58.230Z,21.00
2023-05-03T22:06:25.967Z,20.90
2023-05-03T22:08:54.078Z,20.90
2023-05-03T22:11:21.484Z,20.90
2023-05-03T22:14:05.827Z,20.90
2023-05-03T22:16:35.061Z,20.80
2023-05-03T22:19:02.678Z,20.80
2023-05-03T22:21:30.106Z,20.70
2023-05-03T22:23:57.549Z,20.70
2023-05-03T22:26:25.313Z,20.60
2023-05-03T22:28:52.642Z,20.60
2023-05-03T22:31:20.483Z,20.60
2023-05-03T22:33:49.166Z,20.50
2023-05-03T22:36:16.564Z,20.50
2023-05-03T22:38:44.004Z,20.60
2023-05-03T22:41:11.516Z,20.60
2023-05-03T22:43:38.794Z,20.60
2023-05-03T22:46:06.344Z,20.50
2023-05-03T22:48:34.339Z,20.50
2023-05-03T22:51:01.791Z,20.50
2023-05-03T22:53:29.059Z,20.60
2023-05-03T22:55:59.129Z,20.60
2023-05-03T22:58:26.524Z,20.70
2023-05-03T23:00:54.460Z,20.70
2023-05-03T23:03:22.621Z,20.70
2023-05-03T23:05:53.056Z,20.70
2023-05-03T23:08:21.404Z,20.70
2023-05-03T23:10:48.715Z,20.70
2023-05-03T23:13:16.841Z,20.70
2023-05-03T23:15:44.389Z,20.70
2023-05-03T23:18:11.830Z,20.80
2023-05-03T23:20:39.168Z,20.70
2023-05-03T23:23:06.978Z,20.70
2023-05-03T23:25:34.400Z,20.70
2023-05-03T23:28:02.081Z,20.70
2023-05-03T23:30:29.697Z,20.70
2023-05-03T23:32:57.887Z,20.60
2023-05-03T23:35:26.003Z,20.60
2023-05-03T23:37:53.321Z,20.60
2023-05-03T23:40:20.727Z,20.60
2023-05-03T23:42:49.228Z,20.60
2023-05-03T23:45:16.470Z,20.50
2023-05-03T23:47:44.016Z,20.50
2023-05-03T23:50:11.598Z,20.50
2023-05-03T23:52:39.331Z,20.40
2023-05-03T23:55:07.187Z,20.30
2023-05-03T23:57:34.648Z,20.30
